• Join FlightAware (Why Join?)
  • Login
  • US Flag 
11:04AM EDT


 

Airport Tracker/Info


-or-


 

Live Flight TrackerFlight Track Log ✈ N99TD ✈ 24-Jun-2014 ✈ KOMN - KPIE

Flight Track Log - Related Links

Times and Time Zones

All times are in EDT time to prevent confusion due to time zone crossing. See the N99TD flight status page for this flight to view local times or setup timezone preferences in your user account.

Time Position Orientation Groundspeed Altitude Reporting Facility
EDT Latitude Longitude Course Direction KTS MPH feet Rate Location/Type
01:43PM 29.3019 -81.1042 76° East 123 142 300  Level Jacksonville Center
01:44PM 29.3100 -81.0683 76° East 115 132 1,100 660 Climbing Jacksonville Center
01:45PM 29.2886 -81.0497 143° Southeast 134 154 1,700 660 Climbing Jacksonville Center
01:46PM 29.2558 -81.0764 215° Southwest 139 160 2,500 720 Climbing Jacksonville Center
01:47PM 29.2247 -81.1033 217° Southwest 139 160 3,200 600 Climbing Jacksonville Center
01:48PM 29.1667 -81.1500 215° Southwest 150 173 4,300 660 Climbing Orlando TRACON
01:49PM 29.1333 -81.1833 221° Southwest 150 173 5,100 720 Climbing Orlando TRACON
01:50PM 29.1000 -81.2000 204° Southwest 145 167 5,800 660 Climbing Orlando TRACON
01:51PM 29.0667 -81.2333 221° Southwest 145 167 6,500 660 Climbing Orlando TRACON
01:52PM 29.0333 -81.2500 204° Southwest 140 161 7,200 540 Climbing Orlando TRACON
01:53PM 29.0000 -81.2833 221° Southwest 145 167 7,700 360 Climbing Orlando TRACON
01:54PM 28.9833 -81.3167 240° Southwest 148 170 8,000 120 Climbing Orlando TRACON
01:55PM 28.9500 -81.3500 221° Southwest 159 183 8,000 -60 Level Orlando TRACON
01:56PM 28.9167 -81.4000 233° Southwest 164 189 7,900  Descending Orlando TRACON
01:57PM 28.9000 -81.4333 240° Southwest 154 177 8,000  Climbing Orlando TRACON
01:58PM 28.8833 -81.4833 249° West 157 181 8,000  Level Orlando TRACON
01:59PM 28.8667 -81.5333 249° West 158 182 8,000  Level Orlando TRACON
02:01PM 28.8500 -81.5833 249° West 158 182 8,100  Climbing Orlando TRACON
02:02PM 28.8333 -81.6333 249° West 159 183 8,000 -60 Descending Orlando TRACON
02:03PM 28.8000 -81.6833 233° Southwest 161 185 8,000  Level Orlando TRACON
02:03PM 28.7667 -81.7000 204° Southwest 166 191 8,100  Climbing Orlando TRACON
02:04PM 28.7333 -81.7333 221° Southwest 164 189 8,000 -60 Descending Orlando TRACON
02:05PM 28.7167 -81.7667 240° Southwest 161 185 8,000  Level Orlando TRACON
02:06PM 28.6833 -81.8000 221° Southwest 161 185 8,000  Level Orlando TRACON
02:08PM 28.6333 -81.8833 236° Southwest 163 188 8,000  Level Tampa TRACON
02:09PM 28.6000 -81.9167 221° Southwest 167 192 8,000  Level Tampa TRACON
02:10PM 28.5833 -81.9500 240° Southwest 169 194 8,100  Climbing Tampa TRACON
02:11PM 28.5500 -81.9833 221° Southwest 164 189 8,100 -60 Level Tampa TRACON
02:12PM 28.5167 -82.0500 240° Southwest 165 190 8,000 -180 Descending Tampa TRACON
02:13PM 28.4833 -82.0833 221° Southwest 170 196 7,800 -480 Descending Tampa TRACON
02:14PM 28.4667 -82.1333 249° West 182 209 7,100 -720 Descending Tampa TRACON
02:15PM 28.4500 -82.1833 249° West 190 219 6,500 -660 Descending Tampa TRACON
02:16PM 28.4000 -82.1833 180° South 192 221 6,000 -300 Descending Tampa TRACON
02:17PM 28.3500 -82.2000 196° South 180 207 6,000  Level Tampa TRACON
02:18PM 28.3000 -82.2167 196° South 166 191 6,100 -60 Climbing Tampa TRACON
02:19PM 28.2500 -82.2333 196° South 167 192 5,900 -420 Descending Tampa TRACON
02:20PM 28.2000 -82.2500 196° South 179 206 5,300 -480 Descending Tampa TRACON
02:21PM 28.1667 -82.2667 204° Southwest 186 214 5,100 -360 Descending Tampa TRACON
02:22PM 28.1167 -82.3000 210° Southwest 183 211 4,600 -540 Descending Tampa TRACON
02:23PM 28.0500 -82.3167 192° South 180 207 4,000 -300 Descending Tampa TRACON
02:24PM 28.0167 -82.3333 204° Southwest 167 192 4,000  Level Tampa TRACON
02:25PM 27.9833 -82.3667 221° Southwest 163 188 4,000  Level Tampa TRACON
02:26PM 27.9667 -82.4167 249° West 160 184 4,000  Level Tampa TRACON
02:27PM 27.9667 -82.4667 270° West 158 182 4,100 -180 Climbing Tampa TRACON
02:28PM 27.9667 -82.5167 270° West 163 188 3,700 -540 Descending Tampa TRACON
02:29PM 27.9667 -82.5833 270° West 178 205 3,100 -660 Descending Tampa TRACON
02:30PM 27.9500 -82.6167 240° Southwest 179 206 2,600 -360 Descending Tampa TRACON
02:31PM 27.9500 -82.6667 270° West 166 191 2,500 -480 Descending Tampa TRACON
02:32PM 27.9167 -82.6667 180° South 156 180 1,800 -780 Descending Tampa TRACON
02:33PM 27.8833 -82.6667 180° South 137 158 1,000 -840 Descending Tampa TRACON